createdAt,value
2023-10-22T00:00:11.581Z,1.88
2023-10-22T00:02:39.356Z,2.65
2023-10-22T00:05:07.264Z,1.63
2023-10-22T00:07:35.210Z,2.13
2023-10-22T00:10:02.941Z,1.42
2023-10-22T00:12:30.378Z,1.75
2023-10-22T00:14:57.852Z,1.88
2023-10-22T00:17:25.309Z,2.10
2023-10-22T00:19:52.717Z,1.85
2023-10-22T00:22:20.067Z,1.88
2023-10-22T00:24:47.465Z,2.00
2023-10-22T00:27:14.896Z,1.77
2023-10-22T00:29:42.318Z,1.73
2023-10-22T00:32:09.720Z,2.00
2023-10-22T00:34:37.445Z,1.98
2023-10-22T00:37:05.243Z,2.00
2023-10-22T00:39:32.797Z,1.70
2023-10-22T00:42:00.498Z,2.08
2023-10-22T00:44:28.311Z,1.80
2023-10-22T00:46:55.900Z,1.75
2023-10-22T00:49:23.357Z,1.58
2023-10-22T00:51:51.547Z,1.75
2023-10-22T00:54:21.058Z,2.20
2023-10-22T00:56:49.856Z,1.63
2023-10-22T00:59:17.527Z,1.90
2023-10-22T01:01:45.017Z,2.00
2023-10-22T01:04:13.988Z,2.22
2023-10-22T01:06:41.925Z,2.10
2023-10-22T01:09:11.622Z,2.28
2023-10-22T01:11:39.572Z,2.10
2023-10-22T01:14:07.203Z,1.80
2023-10-22T01:16:35.206Z,2.40
2023-10-22T01:19:02.714Z,1.90
2023-10-22T01:21:30.665Z,2.03
2023-10-22T01:23:58.185Z,2.40
2023-10-22T01:26:25.664Z,2.22
2023-10-22T01:28:53.075Z,2.30
2023-10-22T01:31:20.572Z,2.30
2023-10-22T01:33:48.032Z,1.80
2023-10-22T01:36:15.484Z,2.10
2023-10-22T01:38:43.036Z,1.92
2023-10-22T01:41:10.454Z,1.90
2023-10-22T01:43:37.818Z,1.70
2023-10-22T01:46:05.294Z,1.90
2023-10-22T01:48:32.859Z,2.05
2023-10-22T01:51:00.641Z,1.50
2023-10-22T01:53:28.055Z,1.98
2023-10-22T01:55:55.484Z,1.90
2023-10-22T01:58:22.870Z,1.58
2023-10-22T02:00:50.308Z,1.90
2023-10-22T02:03:17.985Z,2.13
2023-10-22T02:05:45.493Z,2.13
2023-10-22T02:08:12.981Z,1.58
2023-10-22T02:10:40.371Z,1.85
2023-10-22T02:13:07.722Z,1.77
2023-10-22T02:15:35.153Z,1.70
2023-10-22T02:18:03.134Z,1.42
2023-10-22T02:20:30.741Z,1.75
2023-10-22T02:23:00.511Z,1.98
2023-10-22T02:25:27.998Z,1.85
2023-10-22T02:27:55.776Z,1.50
2023-10-22T02:30:23.119Z,2.03
2023-10-22T02:32:50.649Z,1.65
2023-10-22T02:35:18.185Z,1.98
2023-10-22T02:37:45.812Z,1.75
2023-10-22T02:40:13.542Z,1.55
2023-10-22T02:42:41.008Z,1.92
2023-10-22T02:45:08.524Z,1.88
2023-10-22T02:47:35.979Z,1.20
2023-10-22T02:50:05.521Z,1.92
2023-10-22T02:52:33.012Z,1.80
2023-10-22T02:55:00.547Z,1.52
2023-10-22T02:57:27.949Z,1.55
2023-10-22T02:59:55.383Z,1.27
2023-10-22T03:02:23.780Z,1.60
2023-10-22T03:04:51.332Z,1.13
2023-10-22T03:07:18.754Z,1.70
2023-10-22T03:09:46.518Z,1.55
2023-10-22T03:12:14.037Z,1.70
2023-10-22T03:14:41.558Z,1.90
2023-10-22T03:17:08.917Z,1.70
2023-10-22T03:19:36.270Z,1.98
2023-10-22T03:22:05.703Z,1.85
2023-10-22T03:24:33.338Z,2.10
2023-10-22T03:27:00.698Z,1.65
2023-10-22T03:29:28.708Z,1.98
2023-10-22T03:31:56.090Z,2.10
2023-10-22T03:34:23.440Z,1.77
2023-10-22T03:36:50.798Z,1.90
2023-10-22T03:39:19.054Z,2.10
2023-10-22T03:41:46.563Z,1.73
2023-10-22T03:44:14.117Z,1.92
2023-10-22T03:46:41.522Z,1.73
2023-10-22T03:49:09.144Z,2.00
2023-10-22T03:51:36.629Z,1.60
2023-10-22T03:54:04.526Z,1.70
2023-10-22T03:56:31.908Z,1.52
2023-10-22T03:59:00.870Z,1.60
2023-10-22T04:01:28.570Z,1.73
2023-10-22T04:03:56.124Z,1.38
2023-10-22T04:06:23.687Z,1.40
2023-10-22T04:08:51.161Z,1.45
2023-10-22T04:11:22.025Z,1.33
2023-10-22T04:13:49.710Z,1.35
2023-10-22T04:16:18.039Z,1.52
2023-10-22T04:18:45.641Z,1.35
2023-10-22T04:21:16.629Z,1.88
2023-10-22T04:23:44.434Z,1.60
2023-10-22T04:26:18.045Z,1.90
2023-10-22T04:28:46.485Z,1.50
2023-10-22T04:31:14.101Z,1.90
2023-10-22T04:33:41.804Z,1.80
2023-10-22T04:36:20.508Z,1.60
2023-10-22T04:38:49.848Z,1.60
2023-10-22T04:41:17.308Z,1.38
2023-10-22T04:43:44.826Z,1.60
2023-10-22T04:46:12.336Z,1.70
2023-10-22T04:48:39.847Z,1.58
2023-10-22T04:51:08.494Z,1.98
2023-10-22T04:53:39.162Z,1.38
2023-10-22T04:56:06.887Z,1.30
2023-10-22T04:58:34.574Z,1.75
2023-10-22T05:01:02.054Z,1.27
2023-10-22T05:03:29.641Z,1.70
2023-10-22T05:05:57.158Z,1.98
2023-10-22T05:08:25.240Z,1.67
2023-10-22T05:10:52.683Z,1.45
2023-10-22T05:13:23.684Z,1.83
2023-10-22T05:15:52.115Z,1.63
2023-10-22T05:18:19.763Z,1.83
2023-10-22T05:20:47.205Z,2.00
2023-10-22T05:23:14.786Z,1.95
2023-10-22T05:25:42.200Z,1.83
2023-10-22T05:28:09.602Z,1.77
2023-10-22T05:30:37.159Z,2.00
2023-10-22T05:33:04.652Z,1.80
2023-10-22T05:35:36.205Z,1.95
2023-10-22T05:38:04.173Z,2.10
2023-10-22T05:40:37.422Z,2.40
2023-10-22T05:43:04.964Z,2.42
2023-10-22T05:45:32.346Z,2.10
2023-10-22T05:47:59.786Z,2.50
2023-10-22T05:50:27.332Z,2.35
2023-10-22T05:52:54.730Z,2.30
2023-10-22T05:55:22.109Z,2.08
2023-10-22T05:57:49.514Z,1.92
2023-10-22T06:00:17.017Z,1.92
2023-10-22T06:02:45.068Z,2.30
2023-10-22T06:05:23.913Z,2.20
2023-10-22T06:07:54.138Z,2.25
2023-10-22T06:10:21.675Z,2.25
2023-10-22T06:12:51.063Z,3.00
2023-10-22T06:15:18.592Z,2.00
2023-10-22T06:17:46.194Z,1.80
2023-10-22T06:20:14.187Z,2.20
2023-10-22T06:22:41.616Z,2.15
2023-10-22T06:25:09.364Z,1.98
2023-10-22T06:27:36.713Z,1.75
2023-10-22T06:30:04.262Z,2.90
2023-10-22T06:32:31.782Z,2.60
2023-10-22T06:34:59.211Z,2.10
2023-10-22T06:37:26.624Z,3.42
2023-10-22T06:39:56.469Z,2.15
2023-10-22T06:42:23.871Z,2.33
2023-10-22T06:44:52.394Z,2.20
2023-10-22T06:47:19.865Z,2.83
2023-10-22T06:49:47.287Z,2.83
2023-10-22T06:52:15.022Z,2.50
2023-10-22T06:54:42.363Z,2.47
2023-10-22T06:57:09.937Z,2.78
2023-10-22T06:59:37.341Z,2.63
2023-10-22T07:02:04.976Z,2.88
2023-10-22T07:04:32.404Z,2.55
2023-10-22T07:06:59.766Z,2.53
2023-10-22T07:09:27.283Z,2.33
2023-10-22T07:11:54.888Z,2.10
2023-10-22T07:14:22.295Z,2.20
2023-10-22T07:16:49.779Z,2.20
2023-10-22T07:19:17.130Z,2.78
2023-10-22T07:21:44.523Z,2.80
2023-10-22T07:24:12.120Z,3.67
2023-10-22T07:26:39.990Z,2.30
2023-10-22T07:29:07.664Z,2.50
2023-10-22T07:31:35.455Z,2.35
2023-10-22T07:34:02.838Z,2.70
2023-10-22T07:36:30.230Z,3.85
2023-10-22T07:38:57.690Z,3.53
2023-10-22T07:41:25.761Z,3.70
2023-10-22T07:43:53.170Z,2.95
2023-10-22T07:46:20.706Z,3.47
2023-10-22T07:48:48.167Z,3.97
2023-10-22T07:51:19.445Z,3.30
2023-10-22T07:53:47.960Z,3.65
2023-10-22T07:56:17.428Z,3.22
2023-10-22T07:58:44.879Z,4.45
2023-10-22T08:01:12.350Z,4.10
2023-10-22T08:03:40.036Z,5.95
2023-10-22T08:06:07.714Z,7.03
2023-10-22T08:08:35.809Z,6.85
2023-10-22T08:11:04.190Z,6.63
2023-10-22T08:13:31.720Z,7.38
2023-10-22T08:15:59.117Z,7.90
2023-10-22T08:18:26.636Z,7.65
2023-10-22T08:20:54.065Z,12.60
2023-10-22T08:23:21.461Z,12.63
2023-10-22T08:25:52.876Z,13.10
2023-10-22T08:28:21.398Z,12.65
2023-10-22T08:30:49.194Z,10.48
2023-10-22T08:33:16.678Z,9.98
2023-10-22T08:35:44.410Z,9.80
2023-10-22T08:38:12.273Z,8.70
2023-10-22T08:40:43.087Z,7.65
2023-10-22T08:43:20.160Z,7.40
2023-10-22T08:45:47.705Z,7.05
2023-10-22T08:48:17.555Z,5.88
2023-10-22T08:50:46.314Z,6.65
2023-10-22T08:53:14.319Z,4.95
2023-10-22T08:55:46.469Z,5.80
2023-10-22T08:58:17.050Z,5.03
2023-10-22T09:00:48.464Z,5.78
2023-10-22T09:03:16.604Z,4.88
2023-10-22T09:05:44.868Z,4.57
2023-10-22T09:08:12.636Z,4.90
2023-10-22T09:10:40.369Z,4.43
2023-10-22T09:13:18.185Z,4.57
2023-10-22T09:15:46.693Z,5.45
2023-10-22T09:18:14.503Z,5.18
2023-10-22T09:20:42.825Z,4.78
2023-10-22T09:23:16.324Z,6.93
2023-10-22T09:25:44.593Z,6.43
2023-10-22T09:28:21.799Z,4.72
2023-10-22T09:30:49.881Z,5.10
2023-10-22T09:33:19.482Z,5.85
2023-10-22T09:36:06.525Z,6.63
2023-10-22T09:38:46.561Z,10.60
2023-10-22T09:41:14.823Z,13.95
2023-10-22T09:43:42.942Z,8.15
2023-10-22T09:46:10.434Z,7.30
2023-10-22T09:48:38.197Z,6.53
2023-10-22T09:51:07.389Z,6.68
2023-10-22T09:53:44.250Z,6.32
2023-10-22T09:56:12.140Z,5.75
2023-10-22T09:58:45.924Z,5.35
2023-10-22T10:01:15.230Z,6.22
2023-10-22T10:03:43.552Z,5.15
2023-10-22T10:06:11.892Z,5.63
2023-10-22T10:08:40.119Z,5.07
2023-10-22T10:11:09.314Z,5.32
2023-10-22T10:13:36.771Z,4.10
2023-10-22T10:16:05.209Z,4.28
2023-10-22T10:18:51.454Z,4.15
2023-10-22T10:21:41.023Z,3.78
2023-10-22T10:24:25.769Z,4.95
2023-10-22T10:26:59.305Z,3.00
2023-10-22T10:29:29.626Z,1.52
2023-10-22T10:31:59.486Z,1.30
2023-10-22T10:34:38.258Z,1.27
2023-10-22T10:37:12.778Z,1.95
2023-10-22T10:39:44.031Z,1.63
2023-10-22T10:42:12.397Z,1.38
2023-10-22T10:45:17.422Z,1.65
2023-10-22T10:47:46.645Z,1.17
2023-10-22T10:50:19.581Z,1.00
2023-10-22T10:52:50.110Z,4.07
2023-10-22T10:55:17.464Z,4.13
2023-10-22T10:57:51.601Z,3.40
2023-10-22T11:00:23.110Z,1.45
2023-10-22T11:02:51.866Z,1.63
2023-10-22T11:05:30.705Z,5.28
2023-10-22T11:07:58.464Z,1.00
2023-10-22T11:10:25.980Z,1.35
2023-10-22T11:12:53.394Z,1.40
2023-10-22T11:15:20.810Z,2.55
2023-10-22T11:17:48.398Z,2.40
2023-10-22T11:20:17.346Z,1.10
2023-10-22T11:22:44.765Z,0.70
2023-10-22T11:25:14.130Z,0.90
2023-10-22T11:27:41.644Z,1.27
2023-10-22T11:30:09.332Z,1.00
2023-10-22T11:32:37.230Z,1.25
2023-10-22T11:35:06.072Z,0.90
2023-10-22T11:37:43.049Z,0.98
2023-10-22T11:40:33.098Z,1.00
2023-10-22T11:43:07.071Z,1.30
2023-10-22T11:45:37.900Z,1.20
2023-10-22T11:48:15.412Z,0.90
2023-10-22T11:50:49.615Z,1.13
2023-10-22T11:53:18.441Z,1.33
2023-10-22T11:55:49.537Z,1.17
2023-10-22T11:58:20.607Z,0.93
2023-10-22T12:00:48.403Z,1.13
2023-10-22T12:03:16.395Z,1.05
2023-10-22T12:05:44.445Z,1.10
2023-10-22T12:08:12.231Z,1.20
2023-10-22T12:10:39.870Z,9.77
2023-10-22T12:13:08.529Z,3.20
2023-10-22T12:15:36.740Z,2.33
2023-10-22T12:18:05.887Z,6.00
2023-10-22T12:20:33.372Z,1.98
2023-10-22T12:23:00.937Z,2.03
2023-10-22T12:25:32.179Z,1.00
2023-10-22T12:28:00.055Z,0.90
2023-10-22T12:30:28.343Z,1.30
2023-10-22T12:32:56.088Z,0.90
2023-10-22T12:35:24.499Z,1.20
2023-10-22T12:37:52.755Z,0.70
2023-10-22T12:40:20.135Z,1.05
2023-10-22T12:42:47.500Z,0.90
2023-10-22T12:45:15.082Z,0.88
2023-10-22T12:47:42.653Z,0.88
2023-10-22T12:50:10.416Z,0.90
2023-10-22T12:52:37.983Z,1.00
2023-10-22T12:55:06.445Z,1.42
2023-10-22T12:57:34.267Z,1.10
2023-10-22T13:00:04.954Z,0.80
2023-10-22T13:02:35.641Z,0.90
2023-10-22T13:05:04.518Z,0.90
2023-10-22T13:07:31.980Z,1.00
2023-10-22T13:09:59.390Z,1.50
2023-10-22T13:12:26.971Z,1.38
2023-10-22T13:14:55.506Z,0.60
2023-10-22T13:17:22.913Z,0.88
2023-10-22T13:19:50.310Z,0.80
2023-10-22T13:22:18.850Z,0.63
2023-10-22T13:24:46.330Z,0.80
2023-10-22T13:27:13.795Z,1.45
2023-10-22T13:29:41.176Z,1.10
2023-10-22T13:32:08.582Z,0.80
2023-10-22T13:34:36.119Z,0.95
2023-10-22T13:37:04.566Z,0.68
2023-10-22T13:39:32.157Z,0.60
2023-10-22T13:41:59.570Z,0.82
2023-10-22T13:44:26.989Z,0.82
2023-10-22T13:46:54.717Z,0.98
2023-10-22T13:49:22.392Z,1.10
2023-10-22T13:51:49.754Z,0.70
2023-10-22T13:54:17.168Z,1.23
2023-10-22T13:56:44.573Z,0.82
2023-10-22T13:59:12.338Z,1.00
2023-10-22T14:01:39.891Z,0.68
2023-10-22T14:04:07.412Z,0.80
2023-10-22T14:06:35.424Z,1.35
2023-10-22T14:09:02.851Z,1.15
2023-10-22T14:11:30.312Z,1.00
2023-10-22T14:13:59.766Z,0.70
2023-10-22T14:16:27.320Z,0.73
2023-10-22T14:18:54.781Z,0.60
2023-10-22T14:21:23.133Z,0.90
2023-10-22T14:23:50.492Z,0.88
2023-10-22T14:26:17.973Z,1.08
2023-10-22T14:28:45.493Z,1.00
2023-10-22T14:31:12.879Z,0.70
2023-10-22T14:33:40.324Z,1.00
2023-10-22T14:36:09.175Z,0.65
2023-10-22T14:38:36.691Z,1.20
2023-10-22T14:41:04.405Z,1.38
2023-10-22T14:43:32.452Z,2.22
2023-10-22T14:46:03.527Z,0.80
2023-10-22T14:48:31.904Z,0.80
2023-10-22T14:51:01.906Z,0.98
2023-10-22T14:53:29.904Z,1.00
2023-10-22T14:56:00.352Z,1.08
2023-10-22T14:58:28.387Z,1.30
2023-10-22T15:00:55.994Z,1.08
2023-10-22T15:03:23.653Z,0.90
2023-10-22T15:05:51.740Z,1.10
2023-10-22T15:08:19.200Z,1.05
2023-10-22T15:10:47.048Z,0.70
2023-10-22T15:13:14.860Z,0.80
2023-10-22T15:15:43.619Z,0.90
2023-10-22T15:18:11.846Z,1.70
2023-10-22T15:20:43.359Z,1.73
2023-10-22T15:23:11.062Z,2.05
2023-10-22T15:25:45.172Z,0.60
2023-10-22T15:28:12.911Z,0.40
2023-10-22T15:30:40.638Z,0.60
2023-10-22T15:33:08.488Z,1.15
2023-10-22T15:35:36.104Z,1.40
2023-10-22T15:38:05.591Z,1.90
2023-10-22T15:40:33.462Z,1.10
2023-10-22T15:43:01.562Z,1.65
2023-10-22T15:45:32.806Z,1.75
2023-10-22T15:48:02.443Z,3.40
2023-10-22T15:50:30.621Z,2.40
2023-10-22T15:52:58.183Z,1.52
2023-10-22T15:55:25.700Z,1.23
2023-10-22T15:57:53.235Z,1.77
2023-10-22T16:00:23.997Z,1.65
2023-10-22T16:02:51.732Z,1.67
2023-10-22T16:05:19.333Z,1.00
2023-10-22T16:07:47.051Z,0.85
2023-10-22T16:10:15.067Z,1.98
2023-10-22T16:12:42.905Z,1.20
2023-10-22T16:15:13.397Z,1.90
2023-10-22T16:17:43.745Z,3.30
2023-10-22T16:20:12.101Z,3.22
2023-10-22T16:22:40.022Z,2.50
2023-10-22T16:25:07.677Z,2.45
2023-10-22T16:27:35.476Z,2.08
2023-10-22T16:30:03.017Z,1.70
2023-10-22T16:32:30.565Z,2.83
2023-10-22T16:34:58.267Z,2.20
2023-10-22T16:37:25.778Z,2.83
2023-10-22T16:39:53.281Z,2.78
2023-10-22T16:42:20.768Z,3.25
2023-10-22T16:44:52.207Z,5.40
2023-10-22T16:47:19.862Z,5.22
2023-10-22T16:49:47.448Z,4.55
2023-10-22T16:52:14.948Z,4.20
2023-10-22T16:54:42.473Z,5.20
2023-10-22T16:57:10.000Z,6.85
2023-10-22T16:59:37.972Z,5.53
2023-10-22T17:02:05.845Z,3.40
2023-10-22T17:04:33.313Z,2.63
2023-10-22T17:07:00.753Z,2.55
2023-10-22T17:09:28.258Z,2.88
2023-10-22T17:11:55.761Z,2.10
2023-10-22T17:14:27.234Z,2.63
2023-10-22T17:17:01.735Z,2.10
2023-10-22T17:19:30.225Z,2.38
2023-10-22T17:21:57.820Z,2.00
2023-10-22T17:24:25.347Z,2.10
2023-10-22T17:26:55.134Z,2.15
2023-10-22T17:29:24.133Z,2.13
2023-10-22T17:31:51.566Z,2.40
2023-10-22T17:34:19.182Z,3.70
2023-10-22T17:36:49.723Z,3.05
2023-10-22T17:39:17.291Z,2.88
2023-10-22T17:41:45.181Z,3.00
2023-10-22T17:44:12.754Z,2.92
2023-10-22T17:46:40.215Z,3.00
2023-10-22T17:49:08.216Z,2.88
2023-10-22T17:51:35.820Z,3.03
2023-10-22T17:54:03.447Z,2.70
2023-10-22T17:56:30.878Z,3.22
2023-10-22T17:58:58.456Z,8.82
2023-10-22T18:01:26.011Z,8.68
2023-10-22T18:03:53.597Z,6.05
2023-10-22T18:06:21.078Z,4.53
2023-10-22T18:08:49.524Z,4.20
2023-10-22T18:11:20.655Z,4.03
2023-10-22T18:13:48.047Z,7.18
2023-10-22T18:16:20.931Z,5.18
2023-10-22T18:18:51.701Z,5.85
2023-10-22T18:21:21.963Z,5.00
2023-10-22T18:23:49.606Z,8.38
2023-10-22T18:26:18.053Z,7.03
2023-10-22T18:28:45.492Z,5.13
2023-10-22T18:31:12.969Z,4.15
2023-10-22T18:33:40.397Z,4.47
2023-10-22T18:36:11.667Z,3.92
2023-10-22T18:38:40.310Z,5.40
2023-10-22T18:41:20.020Z,6.35
2023-10-22T18:43:48.912Z,6.85
2023-10-22T18:46:17.921Z,6.80
2023-10-22T18:48:45.908Z,6.32
2023-10-22T18:51:16.672Z,5.18
2023-10-22T18:53:44.637Z,4.93
2023-10-22T18:56:12.282Z,4.10
2023-10-22T18:58:41.109Z,3.85
2023-10-22T19:01:35.582Z,4.10
2023-10-22T19:04:03.285Z,3.13
2023-10-22T19:06:31.554Z,2.92
2023-10-22T19:09:00.402Z,5.38
2023-10-22T19:11:31.297Z,6.32
2023-10-22T19:13:59.241Z,5.53
2023-10-22T19:16:30.903Z,5.00
2023-10-22T19:18:59.220Z,3.88
2023-10-22T19:21:26.771Z,3.40
2023-10-22T19:23:54.972Z,4.03
2023-10-22T19:26:22.709Z,4.25
2023-10-22T19:28:50.278Z,4.05
2023-10-22T19:31:18.157Z,3.70
2023-10-22T19:33:47.316Z,4.10
2023-10-22T19:36:21.446Z,4.07
2023-10-22T19:38:48.933Z,3.40
2023-10-22T19:41:21.656Z,3.67
2023-10-22T19:43:49.134Z,2.97
2023-10-22T19:46:16.564Z,3.03
2023-10-22T19:48:44.984Z,2.90
2023-10-22T19:51:12.589Z,4.07
2023-10-22T19:53:40.035Z,4.22
2023-10-22T19:56:14.743Z,4.65
2023-10-22T19:58:42.123Z,4.65
2023-10-22T20:01:20.935Z,6.85
2023-10-22T20:03:51.261Z,5.95
2023-10-22T20:06:19.458Z,5.35
2023-10-22T20:08:48.076Z,5.93
2023-10-22T20:11:15.827Z,3.70
2023-10-22T20:13:45.720Z,4.50
2023-10-22T20:16:17.256Z,4.70
2023-10-22T20:18:47.199Z,3.38
2023-10-22T20:21:24.429Z,3.10
2023-10-22T20:23:52.682Z,2.47
2023-10-22T20:26:20.205Z,2.80
2023-10-22T20:28:47.942Z,3.25
2023-10-22T20:31:16.043Z,3.55
2023-10-22T20:33:44.612Z,2.60
2023-10-22T20:36:12.689Z,2.65
2023-10-22T20:38:40.148Z,2.60
2023-10-22T20:41:08.387Z,2.15
2023-10-22T20:43:37.029Z,3.05
2023-10-22T20:46:08.067Z,3.00
2023-10-22T20:48:36.165Z,2.83
2023-10-22T20:51:07.588Z,3.33
2023-10-22T20:53:38.622Z,2.75
2023-10-22T20:56:06.553Z,2.30
2023-10-22T20:58:34.565Z,3.17
2023-10-22T21:01:02.421Z,4.00
2023-10-22T21:03:30.323Z,5.07
2023-10-22T21:05:57.797Z,4.63
2023-10-22T21:08:25.161Z,6.43
2023-10-22T21:10:52.512Z,7.57
2023-10-22T21:13:19.856Z,6.93
2023-10-22T21:15:47.303Z,7.88
2023-10-22T21:18:14.965Z,6.38
2023-10-22T21:20:42.560Z,7.15
2023-10-22T21:23:09.966Z,7.38
2023-10-22T21:25:42.060Z,6.97
2023-10-22T21:28:09.516Z,7.82
2023-10-22T21:30:37.865Z,7.10
2023-10-22T21:33:05.352Z,6.63
2023-10-22T21:35:32.806Z,6.30
2023-10-22T21:38:00.272Z,6.28
2023-10-22T21:40:27.820Z,5.72
2023-10-22T21:42:56.089Z,6.22
2023-10-22T21:45:23.902Z,5.70
2023-10-22T21:47:51.330Z,5.57
2023-10-22T21:50:18.892Z,6.10
2023-10-22T21:52:46.310Z,5.32
2023-10-22T21:55:19.764Z,5.38
2023-10-22T21:57:48.832Z,5.30
2023-10-22T22:00:20.863Z,5.85
2023-10-22T22:02:48.705Z,5.30
2023-10-22T22:05:16.147Z,5.60
2023-10-22T22:07:43.657Z,5.22
2023-10-22T22:10:11.235Z,7.53
2023-10-22T22:12:38.634Z,5.88
2023-10-22T22:15:06.399Z,5.57
2023-10-22T22:17:33.772Z,4.93
2023-10-22T22:20:01.345Z,4.75
2023-10-22T22:22:28.710Z,4.68
2023-10-22T22:24:56.110Z,4.22
2023-10-22T22:27:23.563Z,4.72
2023-10-22T22:29:51.113Z,3.67
2023-10-22T22:32:18.504Z,3.72
2023-10-22T22:34:46.096Z,3.85
2023-10-22T22:37:13.495Z,3.65
2023-10-22T22:39:40.905Z,3.53
2023-10-22T22:42:08.429Z,3.58
2023-10-22T22:44:35.889Z,2.80
2023-10-22T22:47:03.324Z,3.25
2023-10-22T22:49:30.727Z,3.63
2023-10-22T22:51:58.157Z,3.60
2023-10-22T22:54:25.598Z,3.13
2023-10-22T22:56:54.283Z,2.88
2023-10-22T22:59:21.846Z,3.13
2023-10-22T23:01:49.313Z,3.38
2023-10-22T23:04:16.708Z,3.80
2023-10-22T23:06:44.249Z,4.90
2023-10-22T23:09:11.692Z,4.28
2023-10-22T23:11:39.051Z,4.63
2023-10-22T23:14:06.598Z,4.57
2023-10-22T23:16:34.139Z,5.05
2023-10-22T23:19:01.510Z,3.92
2023-10-22T23:21:29.097Z,4.57
2023-10-22T23:23:56.503Z,3.95
2023-10-22T23:26:23.882Z,4.10
2023-10-22T23:28:51.279Z,3.17
2023-10-22T23:31:18.735Z,4.13
2023-10-22T23:33:46.582Z,3.83
2023-10-22T23:36:14.054Z,4.28
2023-10-22T23:38:41.642Z,3.90
2023-10-22T23:41:09.306Z,4.30
2023-10-22T23:43:36.688Z,4.60
2023-10-22T23:46:04.100Z,4.32
2023-10-22T23:48:31.623Z,3.63
2023-10-22T23:50:59.074Z,4.00
2023-10-22T23:53:26.615Z,3.72
2023-10-22T23:55:55.124Z,3.70
2023-10-22T23:58:23.102Z,3.63
